Time;durP1;ratioP1;P1;durP2;ratioP2;P2;SDS_P1;SDS_P2;PMS_P1;PMS_P2;Temp;Humidity;BMP_temperature;BMP_pressure;BME280_temperature;BME280_humidity;BME280_pressure;Samples;Min_cycle;Max_cycle;Signal;HPM_P1;HPM_P2
2023/09/04 00:01:34;;;;;;;;;;;;;;;-144.99;100.00;52321.72;5017508;28;19940;-71
2023/09/04 00:04:03;;;;;;;;;;;;;;;-144.99;100.00;52346.19;5017956;28;20380;-68
2023/09/04 00:06:30;;;;;;;;;;;;;;;-144.99;100.00;52303.38;5018145;28;19939;-69
2023/09/04 00:08:57;;;;;;;;;;;;;;;-144.99;100.00;52344.16;5018551;28;19943;-69
2023/09/04 00:11:25;;;;;;;;;;;;;;;-144.99;100.00;52305.41;5019025;28;20055;-68
2023/09/04 00:13:52;;;;;;;;;;;;;;;-144.99;100.00;52305.41;5017637;28;19967;-69
2023/09/04 00:16:18;;;;;;;;;;;;;;;-144.99;100.00;52366.56;5022288;28;19936;-68
2023/09/04 00:18:45;;;;;;;;;;;;;;;-144.99;100.00;52293.19;5025973;28;20082;-68
2023/09/04 00:21:11;;;;;;;;;;;;;;;-144.99;100.00;52321.72;5023658;28;20028;-70
2023/09/04 00:23:38;;;;;;;;;;;;;;;-144.99;100.00;52301.34;5023110;28;19961;-70
2023/09/04 00:26:05;;;;;;;;;;;;;;;-144.99;100.00;52325.81;5024549;28;19941;-70
2023/09/04 00:28:32;;;;;;;;;;;;;;;-144.99;100.00;52329.88;5019520;28;20032;-68
2023/09/04 00:30:59;;;;;;;;;;;;;;;-144.99;100.00;52321.72;5018632;28;20022;-69
2023/09/04 00:33:26;;;;;;;;;;;;;;;-144.99;100.00;52358.41;5034837;28;19954;-69
2023/09/04 00:35:52;;;;;;;;;;;;;;;-144.99;100.00;52354.34;5025163;28;20421;-69
2023/09/04 00:38:19;;;;;;;;;;;;;;;-144.99;100.00;52354.34;5029386;28;19972;-69
2023/09/04 00:40:45;;;;;;;;;;;;;;;-144.99;100.00;52366.56;5029571;28;19986;-69
2023/09/04 00:43:12;;;;;;;;;;;;;;;-144.99;100.00;52338.03;5028655;28;19963;-69
2023/09/04 00:45:40;;;;;;;;;;;;;;;-144.99;100.00;52362.50;5023043;28;19977;-70
2023/09/04 00:48:07;;;;;;;;;;;;;;;-144.99;100.00;52303.38;5029431;28;19940;-67
2023/09/04 00:50:33;;;;;;;;;;;;;;;-144.99;100.00;52350.25;5028648;28;19942;-66
2023/09/04 00:53:03;;;;;;;;;;;;;;;-144.99;100.00;52342.09;5028936;28;20064;-66
2023/09/04 00:55:29;;;;;;;;;;;;;;;-144.99;100.00;52350.25;5025272;28;20273;-67
2023/09/04 00:57:56;;;;;;;;;;;;;;;-144.99;100.00;52370.63;5029072;28;20438;-68
2023/09/04 01:00:25;;;;;;;;;;;;;;;-144.99;100.00;52362.50;5020851;28;19945;-67
2023/09/04 01:02:53;;;;;;;;;;;;;;;-144.99;100.00;52358.41;5028799;28;20339;-68
2023/09/04 01:05:20;;;;;;;;;;;;;;;-144.99;100.00;52360.44;5026508;28;19945;-71
2023/09/04 01:07:46;;;;;;;;;;;;;;;-144.99;100.00;52346.19;5030486;28;20389;-69
2023/09/04 01:10:14;;;;;;;;;;;;;;;-144.99;100.00;52354.34;5028908;28;19948;-68
2023/09/04 01:12:43;;;;;;;;;;;;;;;-144.99;100.00;52354.34;5030957;28;19992;-68
2023/09/04 01:15:11;;;;;;;;;;;;;;;-144.99;100.00;52362.50;5024349;28;19997;-68
2023/09/04 01:17:39;;;;;;;;;;;;;;;-144.99;100.00;52338.03;5016068;28;19968;-68
2023/09/04 01:20:26;;;;;;;;;;;;;;;-144.99;100.00;52338.03;5018390;28;19996;-67
2023/09/04 01:22:54;;;;;;;;;;;;;;;-144.99;100.00;52356.38;5014319;28;19955;-68
2023/09/04 01:25:21;;;;;;;;;;;;;;;-144.99;100.00;52362.50;5018134;28;19929;-69
2023/09/04 01:27:53;;;;;;;;;;;;;;;-144.99;100.00;52342.09;5026860;28;20385;-70
2023/09/04 01:30:25;;;;;;;;;;;;;;;-144.99;100.00;52350.25;5027351;28;20037;-69
2023/09/04 01:32:55;;;;;;;;;;;;;;;-144.99;100.00;52358.41;5022594;28;20048;-69
2023/09/04 01:35:23;;;;;;;;;;;;;;;-144.99;100.00;52309.50;5020540;28;19940;-69
2023/09/04 01:37:50;;;;;;;;;;;;;;;-144.99;100.00;52301.34;5019896;28;20050;-69
2023/09/04 01:40:18;;;;;;;;;;;;;;;-144.99;100.00;52370.63;5017078;28;19947;-68
2023/09/04 01:42:44;;;;;;;;;;;;;;;-144.99;100.00;52299.31;5020642;28;20014;-69
2023/09/04 01:45:11;;;;;;;;;;;;;;;-144.99;100.00;52362.50;5014626;28;19942;-69
2023/09/04 01:47:37;;;;;;;;;;;;;;;-144.99;100.00;52378.78;5020936;28;19969;-66
2023/09/04 01:50:04;;;;;;;;;;;;;;;-144.99;100.00;52346.19;5018987;28;20022;-66
2023/09/04 01:52:31;;;;;;;;;;;;;;;-144.99;100.00;52350.25;5028091;28;19954;-68
2023/09/04 01:54:57;;;;;;;;;;;;;;;-144.99;100.00;52366.56;5031200;28;19985;-66
2023/09/04 01:57:25;;;;;;;;;;;;;;;-144.99;100.00;52378.78;5019355;28;19980;-68
2023/09/04 01:59:52;;;;;;;;;;;;;;;-144.99;100.00;52354.34;5017251;28;20036;-68
2023/09/04 02:02:18;;;;;;;;;;;;;;;-144.99;100.00;52342.09;5022735;28;20389;-68
2023/09/04 02:04:44;;;;;;;;;;;;;;;-144.99;100.00;52321.72;5023451;28;20337;-68
2023/09/04 02:07:11;;;;;;;;;;;;;;;-144.99;100.00;52346.19;5021538;28;19941;-68
2023/09/04 02:09:37;;;;;;;;;;;;;;;-144.99;100.00;52368.59;5022600;28;20412;-69
2023/09/04 02:12:04;;;;;;;;;;;;;;;-144.99;100.00;52336.00;5019236;28;20347;-69
2023/09/04 02:14:32;;;;;;;;;;;;;;;-144.99;100.00;52354.34;5017704;28;20044;-70
2023/09/04 02:16:59;;;;;;;;;;;;;;;-144.99;100.00;52403.25;5016239;28;20092;-69
2023/09/04 02:19:25;;;;;;;;;;;;;;;-144.99;100.00;52329.88;5015912;28;20022;-69
2023/09/04 02:21:52;;;;;;;;;;;;;;;-144.99;100.00;52352.28;5018901;28;20022;-69
2023/09/04 02:24:18;;;;;;;;;;;;;;;-144.99;100.00;52368.59;5020477;28;20063;-67
2023/09/04 02:26:45;;;;;;;;;;;;;;;-144.99;100.00;52346.19;5021783;28;20044;-72
2023/09/04 02:29:11;;;;;;;;;;;;;;;-144.99;100.00;52366.56;5015514;28;19946;-73
2023/09/04 02:31:39;;;;;;;;;;;;;;;-144.99;100.00;52295.22;5021586;28;20020;-74
2023/09/04 02:34:05;;;;;;;;;;;;;;;-144.99;100.00;52325.81;5045674;28;19941;-75
2023/09/04 02:36:32;;;;;;;;;;;;;;;-144.99;100.00;52346.19;5032253;28;19980;-73
2023/09/04 02:38:58;;;;;;;;;;;;;;;-144.99;100.00;52360.44;5020595;28;19938;-64
2023/09/04 02:41:25;;;;;;;;;;;;;;;-144.99;100.00;52338.03;5025448;28;20437;-64
2023/09/04 02:43:51;;;;;;;;;;;;;;;-144.99;100.00;52372.69;5026933;28;20386;-64
2023/09/04 02:46:18;;;;;;;;;;;;;;;-144.99;100.00;52356.38;5025910;28;20412;-63
2023/09/04 02:48:46;;;;;;;;;;;;;;;-144.99;100.00;52325.81;5023496;28;19948;-62
2023/09/04 02:51:12;;;;;;;;;;;;;;;-144.99;100.00;52348.22;5022994;28;20032;-62
2023/09/04 02:53:39;;;;;;;;;;;;;;;-144.99;100.00;52346.19;5020206;28;20594;-63
2023/09/04 02:56:05;;;;;;;;;;;;;;;-144.99;100.00;52362.50;5019557;28;20070;-63
2023/09/04 02:58:32;;;;;;;;;;;;;;;-144.99;100.00;52317.66;5020977;28;19944;-63
2023/09/04 03:00:58;;;;;;;;;;;;;;;-144.99;100.00;52362.50;5021067;28;20049;-61
2023/09/04 03:03:25;;;;;;;;;;;;;;;-144.99;100.00;52342.09;5019412;28;19998;-61
2023/09/04 03:05:52;;;;;;;;;;;;;;;-144.99;100.00;52388.97;5021227;28;20441;-62
2023/09/04 03:08:19;;;;;;;;;;;;;;;-144.99;100.00;52362.50;5019090;28;20054;-62
2023/09/04 03:10:45;;;;;;;;;;;;;;;-144.99;100.00;52338.03;5019652;28;19943;-69
2023/09/04 03:13:12;;;;;;;;;;;;;;;-144.99;100.00;52354.34;5024613;28;20025;-63
2023/09/04 03:15:38;;;;;;;;;;;;;;;-144.99;100.00;52366.56;5033004;28;19983;-63
2023/09/04 03:18:05;;;;;;;;;;;;;;;-144.99;100.00;52323.75;5023678;28;20349;-63
2023/09/04 03:20:32;;;;;;;;;;;;;;;-144.99;100.00;52366.56;5020299;28;20050;-63
2023/09/04 03:23:00;;;;;;;;;;;;;;;-144.99;100.00;52348.22;5020462;28;19964;-63
2023/09/04 03:25:27;;;;;;;;;;;;;;;-144.99;100.00;52358.41;5019248;28;20065;-71
2023/09/04 03:27:53;;;;;;;;;;;;;;;-144.99;100.00;52370.63;5023098;28;19940;-71
2023/09/04 03:30:20;;;;;;;;;;;;;;;-144.99;100.00;52370.63;5029537;28;19945;-71
2023/09/04 03:32:49;;;;;;;;;;;;;;;-144.99;100.00;52362.50;5021138;28;20081;-65
2023/09/04 03:35:17;;;;;;;;;;;;;;;-144.99;100.00;52350.25;5020090;28;20434;-66
2023/09/04 03:37:43;;;;;;;;;;;;;;;-144.99;100.00;52384.91;5023249;28;20426;-66
2023/09/04 03:40:24;;;;;;;;;;;;;;;-144.99;100.00;52321.72;5012950;28;20056;-66
2023/09/04 03:42:51;;;;;;;;;;;;;;;-144.99;100.00;52376.75;5012015;28;20097;-67
2023/09/04 03:45:17;;;;;;;;;;;;;;;-144.99;100.00;52382.88;5014504;28;20020;-66
2023/09/04 03:47:44;;;;;;;;;;;;;;;-144.99;100.00;52376.75;5009725;28;19992;-64
2023/09/04 03:50:11;;;;;;;;;;;;;;;-144.99;100.00;52342.09;5010633;28;19941;-64
2023/09/04 03:52:39;;;;;;;;;;;;;;;-144.99;100.00;52354.34;5013724;28;20394;-63
2023/09/04 03:55:06;;;;;;;;;;;;;;;-144.99;100.00;52338.03;5025237;28;20044;-62
2023/09/04 03:57:35;;;;;;;;;;;;;;;-144.99;100.00;52362.50;5015868;28;21449;-62
2023/09/04 04:00:02;;;;;;;;;;;;;;;-144.99;100.00;52354.34;5011489;28;19944;-62
2023/09/04 04:02:28;;;;;;;;;;;;;;;-144.99;100.00;52366.56;5015111;28;20064;-76
2023/09/04 04:04:55;;;;;;;;;;;;;;;-144.99;100.00;52317.66;5010594;28;19960;-66
2023/09/04 04:07:21;;;;;;;;;;;;;;;-144.99;100.00;52354.34;5013008;28;19985;-66
2023/09/04 04:09:48;;;;;;;;;;;;;;;-144.99;100.00;52366.56;5058418;22;19986;-64
2023/09/04 04:12:15;;;;;;;;;;;;;;;-144.99;100.00;52407.31;5051506;28;19990;-65
2023/09/04 04:14:43;;;;;;;;;;;;;;;-144.99;100.00;52366.56;5039153;28;19937;-65
2023/09/04 04:17:10;;;;;;;;;;;;;;;-144.99;100.00;52391.03;5038885;28;19972;-68
2023/09/04 04:19:38;;;;;;;;;;;;;;;-144.99;100.00;52325.81;5040098;28;20049;-65
2023/09/04 04:22:05;;;;;;;;;;;;;;;-144.99;100.00;52380.84;5040344;28;19984;-66
2023/09/04 04:24:31;;;;;;;;;;;;;;;-144.99;100.00;52321.72;5037054;28;19961;-65
2023/09/04 04:26:58;;;;;;;;;;;;;;;-144.99;100.00;52354.34;5041517;28;19997;-71
2023/09/04 04:29:24;;;;;;;;;;;;;;;-144.99;100.00;52374.72;5038576;28;19943;-70
2023/09/04 04:31:52;;;;;;;;;;;;;;;-144.99;100.00;52331.91;5039529;28;20397;-70
2023/09/04 04:34:18;;;;;;;;;;;;;;;-144.99;100.00;52354.34;5045558;28;19936;-69
2023/09/04 04:36:45;;;;;;;;;;;;;;;-144.99;100.00;52358.41;5050060;28;19977;-69
2023/09/04 04:39:12;;;;;;;;;;;;;;;-144.99;100.00;52358.41;5041285;28;19977;-69
2023/09/04 04:41:38;;;;;;;;;;;;;;;-144.99;100.00;52354.34;5051003;28;20495;-69
2023/09/04 04:44:05;;;;;;;;;;;;;;;-144.99;100.00;52366.56;5035907;28;20018;-69
2023/09/04 04:46:31;;;;;;;;;;;;;;;-144.99;100.00;52358.41;5053773;28;20015;-69
2023/09/04 04:48:59;;;;;;;;;;;;;;;-144.99;100.00;52340.06;5050424;28;19976;-69
2023/09/04 04:51:25;;;;;;;;;;;;;;;-144.99;100.00;52350.25;5051980;28;20394;-70
2023/09/04 04:53:52;;;;;;;;;;;;;;;-144.99;100.00;52382.88;5057667;28;20015;-70
2023/09/04 04:56:18;;;;;;;;;;;;;;;-144.99;100.00;52325.81;5066495;28;19940;-69
2023/09/04 04:58:45;;;;;;;;;;;;;;;-144.99;100.00;52340.06;5060631;28;19937;-70
2023/09/04 05:01:11;;;;;;;;;;;;;;;-144.99;100.00;52370.63;5066889;28;19951;-73
2023/09/04 05:03:38;;;;;;;;;;;;;;;-144.99;100.00;52350.25;5067027;28;19967;-74
2023/09/04 05:06:08;;;;;;;;;;;;;;;-144.99;100.00;52350.25;5066962;28;19970;-73
2023/09/04 05:08:34;;;;;;;;;;;;;;;-144.99;100.00;52362.50;5072861;28;19937;-74
2023/09/04 05:11:02;;;;;;;;;;;;;;;-144.99;100.00;52340.06;5072333;28;19942;-73
2023/09/04 05:13:29;;;;;;;;;;;;;;;-144.99;100.00;52350.25;5064181;28;19973;-73
2023/09/04 05:15:55;;;;;;;;;;;;;;;-144.99;100.00;52338.03;5065231;28;19952;-75
2023/09/04 05:18:22;;;;;;;;;;;;;;;-144.99;100.00;52321.72;5064470;28;20002;-74
2023/09/04 05:20:53;;;;;;;;;;;;;;;-144.99;100.00;52313.56;4853591;28;10000488;-74
2023/09/04 05:23:21;;;;;;;;;;;;;;;-144.99;100.00;52329.88;5031463;28;20393;-75
2023/09/04 05:25:50;;;;;;;;;;;;;;;-144.99;100.00;52374.72;5046945;28;20120;-74
2023/09/04 05:28:17;;;;;;;;;;;;;;;-144.99;100.00;52378.78;5039849;28;19946;-74
2023/09/04 05:30:44;;;;;;;;;;;;;;;-144.99;100.00;52309.50;5030790;28;20434;-76
2023/09/04 05:33:10;;;;;;;;;;;;;;;-144.99;100.00;52338.03;5043966;28;20044;-75
2023/09/04 05:35:37;;;;;;;;;;;;;;;-144.99;100.00;52301.34;5045755;28;19996;-75
2023/09/04 05:38:03;;;;;;;;;;;;;;;-144.99;100.00;52356.38;5041902;28;19943;-76
2023/09/04 05:40:31;;;;;;;;;;;;;;;-144.99;100.00;52360.44;5043511;28;20052;-76
2023/09/04 05:42:58;;;;;;;;;;;;;;;-144.99;100.00;52325.81;5047062;28;19962;-76
2023/09/04 05:45:25;;;;;;;;;;;;;;;-144.99;100.00;52301.34;5043487;28;20719;-76
2023/09/04 05:47:51;;;;;;;;;;;;;;;-144.99;100.00;52352.28;5042119;28;20041;-76
2023/09/04 05:50:18;;;;;;;;;;;;;;;-144.99;100.00;52309.50;5038953;28;19958;-75
2023/09/04 05:52:44;;;;;;;;;;;;;;;-144.99;100.00;52289.13;5043062;28;20383;-75
2023/09/04 05:55:11;;;;;;;;;;;;;;;-144.99;100.00;52313.56;5045282;28;20001;-75
2023/09/04 05:57:39;;;;;;;;;;;;;;;-144.99;100.00;52325.81;5043419;28;19945;-75
2023/09/04 06:00:07;;;;;;;;;;;;;;;-144.99;100.00;52295.22;5041258;28;19945;-75
2023/09/04 06:02:33;;;;;;;;;;;;;;;-144.99;100.00;52333.94;5046614;28;19958;-75
2023/09/04 06:05:00;;;;;;;;;;;;;;;-144.99;100.00;52313.56;5031994;28;20019;-75
2023/09/04 06:07:26;;;;;;;;;;;;;;;-144.99;100.00;52276.88;5035865;28;20435;-76
2023/09/04 06:09:53;;;;;;;;;;;;;;;-144.99;100.00;52342.09;5042271;28;19947;-75
2023/09/04 06:12:19;;;;;;;;;;;;;;;-144.99;100.00;52333.94;5043383;28;20435;-75
2023/09/04 06:14:47;;;;;;;;;;;;;;;-144.99;100.00;52348.22;5040159;28;19970;-75
2023/09/04 06:17:14;;;;;;;;;;;;;;;-144.99;100.00;52333.94;5037413;28;20003;-76
2023/09/04 06:19:40;;;;;;;;;;;;;;;-144.99;100.00;52276.88;5046016;28;20476;-76
2023/09/04 06:22:07;;;;;;;;;;;;;;;-144.99;100.00;52268.72;5037374;28;20025;-76
2023/09/04 06:24:33;;;;;;;;;;;;;;;-144.99;100.00;52293.19;5047641;28;19955;-76
2023/09/04 06:27:00;;;;;;;;;;;;;;;-144.99;100.00;52272.81;5050459;28;20022;-76
2023/09/04 06:29:26;;;;;;;;;;;;;;;-144.99;100.00;52293.19;5055574;28;20383;-76
2023/09/04 06:31:54;;;;;;;;;;;;;;;-144.99;100.00;52309.50;5051223;28;20339;-75
2023/09/04 06:34:21;;;;;;;;;;;;;;;-144.99;100.00;52301.34;5043895;28;20387;-76
2023/09/04 06:36:47;;;;;;;;;;;;;;;-144.99;100.00;52317.66;5047025;28;19989;-76
2023/09/04 06:39:14;;;;;;;;;;;;;;;-144.99;100.00;52268.72;5042624;28;19946;-77
2023/09/04 06:41:40;;;;;;;;;;;;;;;-144.99;100.00;52276.88;5059705;28;19986;-76
2023/09/04 06:44:07;;;;;;;;;;;;;;;-144.99;100.00;52303.38;5063102;28;19985;-76
2023/09/04 06:46:33;;;;;;;;;;;;;;;-144.99;100.00;52283.00;5058734;28;19953;-76
2023/09/04 06:49:01;;;;;;;;;;;;;;;-144.99;100.00;52264.66;4701756;28;10000135;-76
2023/09/04 06:51:28;;;;;;;;;;;;;;;-144.99;100.00;52285.03;5055537;28;20302;-76
2023/09/04 06:53:55;;;;;;;;;;;;;;;-144.99;100.00;52264.66;5045052;28;19979;-77
2023/09/04 06:56:21;;;;;;;;;;;;;;;-144.99;100.00;52246.31;5053767;28;20000;-77
2023/09/04 06:58:48;;;;;;;;;;;;;;;-144.99;100.00;52280.97;5049938;28;19936;-76
2023/09/04 07:01:15;;;;;;;;;;;;;;;-144.99;100.00;52278.91;5046635;28;19940;-77
2023/09/04 07:03:42;;;;;;;;;;;;;;;-144.99;100.00;52313.56;5044338;28;20376;-77
2023/09/04 07:06:10;;;;;;;;;;;;;;;-144.99;100.00;52250.38;5047328;28;20481;-77
2023/09/04 07:08:36;;;;;;;;;;;;;;;-144.99;100.00;52280.97;5046857;28;19949;-77
2023/09/04 07:11:03;;;;;;;;;;;;;;;-144.99;100.00;52289.13;5048732;28;20089;-77
2023/09/04 07:13:30;;;;;;;;;;;;;;;-144.99;100.00;52268.72;5040040;28;20698;-76
2023/09/04 07:15:56;;;;;;;;;;;;;;;-144.99;100.00;52252.44;5057843;28;20013;-79
2023/09/04 07:18:23;;;;;;;;;;;;;;;-144.99;100.00;52285.03;5072727;28;19912;-78
2023/09/04 07:20:49;;;;;;;;;;;;;;;-144.99;99.67;52276.88;5047346;28;20503;-77
2023/09/04 07:23:18;;;;;;;;;;;;;;;-144.99;98.89;52256.50;5043865;28;20006;-77
2023/09/04 07:25:44;;;;;;;;;;;;;;;-144.99;99.00;52268.72;5030300;28;19963;-76
2023/09/04 07:28:11;;;;;;;;;;;;;;;-144.99;98.79;52289.13;5040969;28;20110;-76
2023/09/04 07:30:37;;;;;;;;;;;;;;;-144.99;98.84;52215.75;5051542;28;20060;-76
2023/09/04 07:33:04;;;;;;;;;;;;;;;-144.99;98.30;52266.69;5044382;28;19978;-76
2023/09/04 07:35:31;;;;;;;;;;;;;;;-144.99;98.64;52252.44;5016947;28;19929;-76
2023/09/04 07:37:57;;;;;;;;;;;;;;;-144.99;97.72;52219.81;5049447;28;20055;-76
2023/09/04 07:40:25;;;;;;;;;;;;;;;-144.99;97.79;52276.88;5047650;28;20424;-75
2023/09/04 07:42:52;;;;;;;;;;;;;;;-144.99;97.53;52278.91;5047458;28;20446;-76
2023/09/04 07:45:21;;;;;;;;;;;;;;;-144.99;96.90;52280.97;5038673;28;20036;-76
2023/09/04 07:47:48;;;;;;;;;;;;;;;-144.99;96.42;52272.81;5033786;28;19936;-76
2023/09/04 07:50:14;;;;;;;;;;;;;;;-144.99;95.63;52246.31;5038625;28;20268;-75
2023/09/04 07:52:41;;;;;;;;;;;;;;;-144.99;92.81;52238.16;5046003;28;20317;-74
2023/09/04 07:55:08;;;;;;;;;;;;;;;-144.99;91.72;52280.97;5045280;28;20374;-76
2023/09/04 07:57:36;;;;;;;;;;;;;;;-144.99;91.21;52268.72;5037102;28;20026;-75
2023/09/04 08:00:03;;;;;;;;;;;;;;;-144.99;90.87;52248.34;5040481;28;20543;-75
2023/09/04 08:02:30;;;;;;;;;;;;;;;-144.99;89.85;52207.59;5041449;28;20065;-75
2023/09/04 08:04:57;;;;;;;;;;;;;;;-144.99;88.02;52219.81;5047478;28;20705;-75
2023/09/04 08:07:24;;;;;;;;;;;;;;;-144.99;87.50;52219.81;5032511;28;19925;-74
2023/09/04 08:09:50;;;;;;;;;;;;;;;-144.99;86.44;52232.03;5047992;28;19948;-75
2023/09/04 08:12:17;;;;;;;;;;;;;;;-144.99;86.67;52232.03;5048543;28;19956;-75
2023/09/04 08:14:47;;;;;;;;;;;;;;;-144.99;86.40;52232.03;5036857;28;19956;-74
2023/09/04 08:17:14;;;;;;;;;;;;;;;-144.99;85.91;52215.75;5041887;28;19967;-75
2023/09/04 08:19:40;;;;;;;;;;;;;;;-144.99;84.63;52207.59;5043754;28;20000;-75
2023/09/04 08:22:07;;;;;;;;;;;;;;;-144.99;83.69;52195.34;5040219;28;20076;-76
2023/09/04 08:24:33;;;;;;;;;;;;;;;-144.99;81.88;52256.50;5039095;28;19941;-75
2023/09/04 08:27:00;;;;;;;;;;;;;;;-144.99;81.59;52199.44;5048108;28;20368;-75
2023/09/04 08:29:26;;;;;;;;;;;;;;;-144.99;81.12;52244.28;5039141;28;19996;-77
2023/09/04 08:31:55;;;;;;;;;;;;;;;-144.99;81.07;52207.59;5040562;28;19980;-76
2023/09/04 08:34:21;;;;;;;;;;;;;;;-144.99;79.52;52195.34;5042675;28;19946;-75
2023/09/04 08:36:48;;;;;;;;;;;;;;;-144.99;78.43;52223.88;5039959;28;19978;-76
2023/09/04 08:39:15;;;;;;;;;;;;;;;-144.99;77.67;52201.47;5037778;28;19990;-76
2023/09/04 08:41:42;;;;;;;;;;;;;;;-144.99;75.35;52174.97;5043097;28;19939;-76
2023/09/04 08:44:10;;;;;;;;;;;;;;;-144.99;75.12;52193.31;5039750;28;19962;-76
2023/09/04 08:46:36;;;;;;;;;;;;;;;-144.99;75.59;52211.66;5042289;28;19979;-75
2023/09/04 08:49:04;;;;;;;;;;;;;;;-144.99;75.17;52174.97;5042070;28;20039;-76
2023/09/04 08:51:31;;;;;;;;;;;;;;;-144.99;75.02;52179.06;5042639;28;19984;-76
2023/09/04 08:53:58;;;;;;;;;;;;;;;-144.99;74.23;52183.13;5040269;28;19966;-76
2023/09/04 08:56:26;;;;;;;;;;;;;;;-144.99;73.50;52181.09;5045145;28;19946;-77
2023/09/04 08:58:53;;;;;;;;;;;;;;;-144.99;73.57;52207.59;5041728;28;20408;-77
2023/09/04 09:01:21;;;;;;;;;;;;;;;-144.99;72.83;52187.19;5034947;28;20117;-77
2023/09/04 09:03:47;;;;;;;;;;;;;;;-144.99;72.93;52174.97;5044078;28;20351;-78
2023/09/04 09:06:16;;;;;;;;;;;;;;;-144.99;72.47;52187.19;5045444;28;20400;-78
2023/09/04 09:08:44;;;;;;;;;;;;;;;-144.99;70.66;52193.31;5045679;28;20450;-78
2023/09/04 09:11:13;;;;;;;;;;;;;;;-144.99;70.64;52170.91;5052941;28;19950;-78
2023/09/04 09:13:40;;;;;;;;;;;;;;;-144.99;71.79;52191.28;5055183;28;19956;-78
2023/09/04 09:16:06;;;;;;;;;;;;;;;-144.99;71.35;52187.19;5057066;28;19966;-77
2023/09/04 09:18:38;;;;;;;;;;;;;;;-144.99;70.12;52187.19;5042037;28;20055;-77
2023/09/04 09:21:19;;;;;;;;;;;;;;;-144.99;70.55;52174.97;5041649;28;19974;-78
2023/09/04 09:23:47;;;;;;;;;;;;;;;-144.99;70.91;52191.28;5045862;28;20476;-78
2023/09/04 09:26:15;;;;;;;;;;;;;;;-144.99;70.78;52162.75;5042045;28;20011;-78
2023/09/04 09:28:42;;;;;;;;;;;;;;;-144.99;69.14;52156.63;5044053;28;19973;-78
2023/09/04 09:31:09;;;;;;;;;;;;;;;-144.99;67.11;52187.19;5033215;28;20030;-78
2023/09/04 09:33:35;;;;;;;;;;;;;;;-144.99;69.00;52174.97;5040336;28;19955;-79
2023/09/04 09:36:02;;;;;;;;;;;;;;;-144.99;67.45;52187.19;5040933;28;19949;-79
2023/09/04 09:38:29;;;;;;;;;;;;;;;-144.99;67.63;52164.78;5042002;28;19943;-77
2023/09/04 09:40:57;;;;;;;;;;;;;;;-144.99;66.88;52146.44;5046415;28;20029;-77
2023/09/04 09:43:26;;;;;;;;;;;;;;;-144.99;66.52;52134.22;5047250;28;20012;-77
2023/09/04 09:45:53;;;;;;;;;;;;;;;-144.99;66.50;52134.22;5035931;28;20025;-78
2023/09/04 09:48:20;;;;;;;;;;;;;;;-144.99;64.84;52179.06;5042315;28;19948;-76
2023/09/04 09:50:47;;;;;;;;;;;;;;;-144.99;65.07;52126.06;5035262;28;19939;-77
2023/09/04 09:53:13;;;;;;;;;;;;;;;-144.99;64.46;52160.72;5042576;28;19961;-76
2023/09/04 09:55:40;;;;;;;;;;;;;;;-144.99;64.04;52124.03;5038606;28;19945;-77
2023/09/04 09:58:08;;;;;;;;;;;;;;;-144.99;64.37;52113.84;5036406;28;20079;-77
2023/09/04 10:00:35;;;;;;;;;;;;;;;-144.99;64.37;52142.38;5043729;28;20065;-77
2023/09/04 10:03:02;;;;;;;;;;;;;;;-144.99;64.14;52156.63;5048645;28;19963;-77
2023/09/04 10:05:29;;;;;;;;;;;;;;;-144.99;63.63;52060.84;5045839;28;19958;-77
2023/09/04 10:07:59;;;;;;;;;;;;;;;-144.99;62.52;52146.44;5045918;28;19980;-77
2023/09/04 10:10:26;;;;;;;;;;;;;;;-144.99;61.75;52089.38;5064363;22;20432;-74
2023/09/04 10:12:56;;;;;;;;;;;;;;;-144.99;61.14;52097.53;5044110;28;20000;-72
2023/09/04 10:15:26;;;;;;;;;;;;;;;-144.99;60.86;52113.84;5036193;28;19925;-72
2023/09/04 10:17:56;;;;;;;;;;;;;;;-144.99;60.03;52081.22;4695117;28;9999893;-72
2023/09/04 10:20:23;;;;;;;;;;;;;;;-144.99;59.88;52105.69;5036497;28;19952;-74
2023/09/04 10:22:53;;;;;;;;;;;;;;;-144.99;59.32;52109.75;5042942;28;19962;-74
2023/09/04 10:25:24;;;;;;;;;;;;;;;-144.99;59.67;52113.84;5041587;28;19928;-76
2023/09/04 10:27:51;;;;;;;;;;;;;;;-144.99;58.77;52111.78;5053565;28;19976;-76
2023/09/04 10:30:19;;;;;;;;;;;;;;;-144.99;58.69;52056.78;5045409;28;19972;-73
2023/09/04 10:32:47;;;;;;;;;;;;;;;-144.99;58.26;52073.06;5036324;28;19962;-72
2023/09/04 10:35:13;;;;;;;;;;;;;;;-144.99;58.49;52032.31;5038429;28;20088;-72
2023/09/04 10:37:40;;;;;;;;;;;;;;;-144.99;56.71;52040.47;5040989;28;20047;-74
2023/09/04 10:40:09;;;;;;;;;;;;;;;-144.99;57.62;52056.78;5045308;28;19943;-73
2023/09/04 10:42:36;;;;;;;;;;;;;;;-144.99;57.67;52081.22;5043608;28;19966;-73
2023/09/04 10:45:11;;;;;;;;;;;;;;;-144.99;57.37;52028.22;5044907;28;19950;-72
2023/09/04 10:47:43;;;;;;;;;;;;;;;-144.99;58.11;52052.69;5040745;28;20434;-70
2023/09/04 10:50:26;;;;;;;;;;;;;;;-144.99;57.41;52011.94;5032199;28;20053;-71
2023/09/04 10:52:52;;;;;;;;;;;;;;;-144.99;56.91;51995.63;5036632;28;19964;-72
2023/09/04 10:55:19;;;;;;;;;;;;;;;-144.99;56.20;52003.78;5043538;28;20038;-71
2023/09/04 10:57:56;;;;;;;;;;;;;;;-144.99;56.20;51983.41;5040630;28;19938;-73
2023/09/04 11:00:33;;;;;;;;;;;;;;;-144.99;55.84;51971.16;5047809;28;19943;-71
2023/09/04 11:03:12;;;;;;;;;;;;;;;-144.99;55.55;51971.16;5047528;28;19960;-71
2023/09/04 11:05:54;;;;;;;;;;;;;;;-144.99;55.08;51950.78;5047388;28;20024;-74
2023/09/04 11:08:28;;;;;;;;;;;;;;;-144.99;55.34;51995.63;5067376;28;20037;-76
2023/09/04 11:11:00;;;;;;;;;;;;;;;-144.99;55.20;51958.94;5050815;28;20376;-73
2023/09/04 11:13:26;;;;;;;;;;;;;;;-144.99;54.44;51934.50;5046217;28;19932;-72
2023/09/04 11:15:55;;;;;;;;;;;;;;;-144.99;53.76;51938.56;5035709;28;20014;-72
2023/09/04 11:18:22;;;;;;;;;;;;;;;-144.99;54.88;51958.94;5031269;28;19941;-72
2023/09/04 11:20:54;;;;;;;;;;;;;;;-144.99;55.49;51960.97;5046388;28;19950;-73
2023/09/04 11:23:24;;;;;;;;;;;;;;;-144.99;55.86;51971.16;5040193;28;19937;-73
2023/09/04 11:25:52;;;;;;;;;;;;;;;-144.99;54.96;51973.22;5048007;28;20073;-73
2023/09/04 11:28:22;;;;;;;;;;;;;;;-144.99;54.51;51910.03;5042957;28;19946;-73
2023/09/04 11:30:49;;;;;;;;;;;;;;;-144.99;54.52;51950.78;5045461;28;19936;-73
2023/09/04 11:33:15;;;;;;;;;;;;;;;-144.99;53.89;51950.78;5045490;28;20450;-73
2023/09/04 11:35:42;;;;;;;;;;;;;;;-144.99;54.67;51975.25;5044608;28;19945;-72
2023/09/04 11:38:24;;;;;;;;;;;;;;;-144.99;54.63;51954.88;5047666;28;19979;-72
2023/09/04 11:40:52;;;;;;;;;;;;;;;-144.99;54.44;51967.09;5047060;28;20069;-72
2023/09/04 11:43:19;;;;;;;;;;;;;;;-144.99;54.72;51954.88;5044787;28;20452;-71
2023/09/04 11:45:45;;;;;;;;;;;;;;;-144.99;54.96;51987.47;5037673;28;20015;-72
2023/09/04 11:48:13;;;;;;;;;;;;;;;-144.99;55.73;52003.78;5045265;28;20005;-72
2023/09/04 11:50:40;;;;;;;;;;;;;;;-144.99;56.59;52007.84;5045995;28;20204;-71
2023/09/04 11:53:06;;;;;;;;;;;;;;;-144.99;56.32;52024.16;5043668;28;20017;-73
2023/09/04 11:55:34;;;;;;;;;;;;;;;-144.99;56.06;51954.88;5047358;28;19925;-73
2023/09/04 11:58:04;;;;;;;;;;;;;;;-144.99;55.48;51948.75;5039764;28;19988;-71
2023/09/04 12:00:30;;;;;;;;;;;;;;;-144.99;55.48;51999.69;5044358;28;19980;-72
2023/09/04 12:02:57;;;;;;;;;;;;;;;-144.99;55.64;51946.72;5041607;28;20035;-71
2023/09/04 12:05:23;;;;;;;;;;;;;;;-144.99;55.50;51936.53;5045602;28;19943;-72
2023/09/04 12:07:50;;;;;;;;;;;;;;;-144.99;54.38;51958.94;5044977;28;19989;-72
2023/09/04 12:10:17;;;;;;;;;;;;;;;-144.99;55.47;51952.81;5044569;28;20017;-73
2023/09/04 12:12:43;;;;;;;;;;;;;;;-144.99;55.73;51969.13;5040006;28;20237;-71
2023/09/04 12:15:12;;;;;;;;;;;;;;;-144.99;56.06;51954.88;5041547;28;20377;-71
2023/09/04 12:17:38;;;;;;;;;;;;;;;-144.99;56.00;51993.59;5034486;28;19939;-72
2023/09/04 12:20:08;;;;;;;;;;;;;;;-144.99;56.13;51971.16;5043383;28;20047;-72
2023/09/04 12:22:34;;;;;;;;;;;;;;;-144.99;56.61;51991.56;5034569;28;19976;-71